Time,TemperatureF,DewpointF,PressureIn,WindDirection,WindDirectionDegrees,WindSpeedMPH,WindSpeedGustMPH,Humidity,HourlyPrecipIn,Conditions,Clouds,dailyrainin,SolarRadiationWatts/m^2,SoftwareType,DateUTC
2013-06-10 00:02:00,68.8,67.9,29.92,West,262,0.0,0.0,97,0.00,,,0.14,0,Wunderground v.1.15,2013-06-10 05:02:00,
2013-06-10 00:07:00,68.9,68.0,29.92,West,262,0.0,0.0,97,0.00,,,0.14,0,Wunderground v.1.15,2013-06-10 05:07:00,
2013-06-10 00:13:00,68.9,68.0,29.92,West,262,0.0,0.0,97,0.00,,,0.14,0,Wunderground v.1.15,2013-06-10 05:13:00,
2013-06-10 00:20:00,68.9,68.0,29.93,West,262,0.0,0.0,97,0.00,,,0.15,0,Wunderground v.1.15,2013-06-10 05:20:00,
2013-06-10 00:26:00,68.8,67.9,29.93,West,262,0.0,0.0,97,0.00,,,0.15,0,Wunderground v.1.15,2013-06-10 05:26:00,
2013-06-10 00:31:00,68.8,67.9,29.93,West,262,0.0,0.0,97,0.00,,,0.15,0,Wunderground v.1.15,2013-06-10 05:31:00,
2013-06-10 00:38:00,68.9,68.0,29.93,West,262,0.0,0.0,97,0.00,,,0.15,0,Wunderground v.1.15,2013-06-10 05:38:00,
2013-06-10 00:47:00,68.9,68.0,29.93,West,262,0.0,0.0,97,0.00,,,0.15,0,Wunderground v.1.15,2013-06-10 05:47:00,
2013-06-10 01:12:00,69.1,68.2,29.94,West,262,0.0,0.0,97,0.00,,,0.15,0,Wunderground v.1.15,2013-06-10 06:12:00,
2013-06-10 01:19:00,69.1,68.2,29.94,West,262,0.0,0.0,97,0.00,,,0.15,0,Wunderground v.1.15,2013-06-10 06:19:00,
2013-06-10 01:26:00,69.1,68.5,29.94,West,262,0.0,0.0,98,0.00,,,0.15,0,Wunderground v.1.15,2013-06-10 06:26:00,
2013-06-10 01:32:00,69.1,68.5,29.94,West,262,0.0,0.0,98,0.00,,,0.15,0,Wunderground v.1.15,2013-06-10 06:32:00,
2013-06-10 01:37:00,69.1,68.5,29.93,West,262,0.0,0.0,98,0.00,,,0.15,0,Wunderground v.1.15,2013-06-10 06:37:00,
2013-06-10 01:42:00,69.1,68.5,29.93,West,262,0.0,0.0,98,0.00,,,0.15,0,Wunderground v.1.15,2013-06-10 06:42:00,
2013-06-10 01:48:00,69.1,68.5,29.92,West,262,0.0,0.0,98,0.00,,,0.15,0,Wunderground v.1.15,2013-06-10 06:48:00,
2013-06-10 01:53:00,69.0,68.1,29.92,West,262,0.0,0.0,97,0.00,,,0.15,0,Wunderground v.1.15,2013-06-10 06:53:00,
2013-06-10 01:58:00,69.0,68.1,29.92,West,262,0.0,0.0,97,0.00,,,0.15,0,Wunderground v.1.15,2013-06-10 06:58:00,
2013-06-10 02:04:00,68.9,68.0,29.93,West,262,0.0,0.0,97,0.00,,,0.15,0,Wunderground v.1.15,2013-06-10 07:04:00,
2013-06-10 02:09:00,68.9,68.3,29.93,West,262,0.0,0.0,98,0.00,,,0.15,0,Wunderground v.1.15,2013-06-10 07:09:00,
2013-06-10 02:14:00,68.9,68.3,29.93,West,262,0.0,1.0,98,0.00,,,0.15,0,Wunderground v.1.15,2013-06-10 07:14:00,
2013-06-10 02:19:00,69.0,68.4,29.93,West,262,0.0,1.0,98,0.00,,,0.15,0,Wunderground v.1.15,2013-06-10 07:19:00,
2013-06-10 02:25:00,69.0,68.4,29.93,West,262,0.0,0.0,98,0.00,,,0.15,0,Wunderground v.1.15,2013-06-10 07:25:00,
2013-06-10 02:30:00,69.0,68.4,29.93,West,262,0.0,0.0,98,0.00,,,0.15,0,Wunderground v.1.15,2013-06-10 07:30:00,
2013-06-10 02:36:00,69.0,68.4,29.93,West,262,0.0,0.0,98,0.00,,,0.15,0,Wunderground v.1.15,2013-06-10 07:36:00,
2013-06-10 02:41:00,69.1,68.5,29.93,West,262,0.0,0.0,98,0.00,,,0.15,0,Wunderground v.1.15,2013-06-10 07:41:00,
2013-06-10 02:46:00,69.1,68.5,29.92,West,262,0.0,0.0,98,0.00,,,0.15,0,Wunderground v.1.15,2013-06-10 07:46:00,
2013-06-10 02:51:00,69.1,68.5,29.92,West,262,0.0,0.0,98,0.00,,,0.15,0,Wunderground v.1.15,2013-06-10 07:51:00,
2013-06-10 02:56:00,69.1,68.5,29.92,West,262,0.0,0.0,98,0.00,,,0.15,0,Wunderground v.1.15,2013-06-10 07:56:00,
2013-06-10 03:01:00,69.2,68.6,29.92,West,262,0.0,0.0,98,0.00,,,0.15,0,Wunderground v.1.15,2013-06-10 08:01:00,
2013-06-10 03:07:00,69.2,68.6,29.92,West,262,0.0,0.0,98,0.00,,,0.15,0,Wunderground v.1.15,2013-06-10 08:07:00,
2013-06-10 03:12:00,69.2,68.6,29.92,West,262,0.0,0.0,98,0.00,,,0.15,0,Wunderground v.1.15,2013-06-10 08:12:00,
2013-06-10 03:17:00,69.2,68.6,29.92,West,262,0.0,0.0,98,0.00,,,0.15,0,Wunderground v.1.15,2013-06-10 08:17:00,
2013-06-10 03:22:00,69.2,68.6,29.92,West,262,0.0,0.0,98,0.00,,,0.15,0,Wunderground v.1.15,2013-06-10 08:22:00,
2013-06-10 03:28:00,69.1,68.5,29.92,West,262,0.0,0.0,98,0.00,,,0.15,0,Wunderground v.1.15,2013-06-10 08:28:00,
2013-06-10 03:33:00,69.1,68.5,29.92,West,262,0.0,0.0,98,0.00,,,0.15,0,Wunderground v.1.15,2013-06-10 08:33:00,
2013-06-10 03:39:00,69.1,68.5,29.92,West,262,0.0,1.0,98,0.00,,,0.15,0,Wunderground v.1.15,2013-06-10 08:39:00,
2013-06-10 03:45:00,69.2,68.6,29.92,West,262,0.0,0.0,98,0.00,,,0.15,0,Wunderground v.1.15,2013-06-10 08:45:00,
2013-06-10 03:50:00,69.2,68.6,29.92,West,262,0.0,0.0,98,0.00,,,0.15,0,Wunderground v.1.15,2013-06-10 08:50:00,
2013-06-10 03:55:00,69.2,68.6,29.92,West,262,0.0,0.0,98,0.00,,,0.15,0,Wunderground v.1.15,2013-06-10 08:55:00,
2013-06-10 04:00:00,69.3,68.7,29.92,West,262,0.0,0.0,98,0.00,,,0.15,0,Wunderground v.1.15,2013-06-10 09:00:00,
2013-06-10 04:06:00,69.3,68.7,29.92,West,262,0.0,0.0,98,0.00,,,0.15,0,Wunderground v.1.15,2013-06-10 09:06:00,
2013-06-10 04:11:00,69.3,68.7,29.92,West,262,0.0,0.0,98,0.00,,,0.15,0,Wunderground v.1.15,2013-06-10 09:11:00,
2013-06-10 04:16:00,69.3,68.7,29.92,West,262,0.0,0.0,98,0.00,,,0.15,0,Wunderground v.1.15,2013-06-10 09:16:00,
2013-06-10 04:22:00,69.4,68.8,29.92,West,262,0.0,0.0,98,0.00,,,0.15,0,Wunderground v.1.15,2013-06-10 09:22:00,
2013-06-10 04:27:00,69.5,68.9,29.92,West,262,0.0,0.0,98,0.00,,,0.15,0,Wunderground v.1.15,2013-06-10 09:27:00,
2013-06-10 04:32:00,69.6,69.0,29.92,West,262,0.0,0.0,98,0.00,,,0.15,0,Wunderground v.1.15,2013-06-10 09:32:00,
2013-06-10 04:37:00,69.6,69.0,29.92,West,262,0.0,0.0,98,0.00,,,0.15,0,Wunderground v.1.15,2013-06-10 09:37:00,
2013-06-10 04:43:00,69.7,69.1,29.93,West,262,0.0,0.0,98,0.00,,,0.15,0,Wunderground v.1.15,2013-06-10 09:43:00,
2013-06-10 04:48:00,69.7,69.1,29.92,West,262,0.0,0.0,98,0.00,,,0.15,0,Wunderground v.1.15,2013-06-10 09:48:00,
2013-06-10 04:53:00,69.7,69.1,29.92,West,262,0.0,0.0,98,0.00,,,0.15,0,Wunderground v.1.15,2013-06-10 09:53:00,
2013-06-10 04:59:00,69.8,69.2,29.93,West,262,0.0,2.0,98,0.00,,,0.15,0,Wunderground v.1.15,2013-06-10 09:59:00,
2013-06-10 05:05:00,69.9,69.3,29.93,West,262,0.0,2.0,98,0.00,,,0.15,0,Wunderground v.1.15,2013-06-10 10:05:00,
2013-06-10 05:10:00,70.0,69.4,29.93,West,262,0.0,0.0,98,0.00,,,0.15,0,Wunderground v.1.15,2013-06-10 10:10:00,
2013-06-10 05:15:00,70.1,69.5,29.93,West,262,0.0,0.0,98,0.00,,,0.15,0,Wunderground v.1.15,2013-06-10 10:15:00,
2013-06-10 05:21:00,70.1,69.5,29.93,West,262,0.0,0.0,98,0.00,,,0.15,0,Wunderground v.1.15,2013-06-10 10:21:00,
2013-06-10 05:27:00,70.2,69.6,29.93,West,262,0.0,0.0,98,0.00,,,0.15,0,Wunderground v.1.15,2013-06-10 10:27:00,
2013-06-10 05:32:00,70.2,69.6,29.93,West,262,0.0,0.0,98,0.00,,,0.15,0,Wunderground v.1.15,2013-06-10 10:32:00,
2013-06-10 05:37:00,70.1,69.5,29.93,West,262,0.0,0.0,98,0.00,,,0.15,0,Wunderground v.1.15,2013-06-10 10:37:00,
2013-06-10 05:43:00,70.2,69.6,29.93,West,262,0.0,0.0,98,0.00,,,0.15,0,Wunderground v.1.15,2013-06-10 10:43:00,
2013-06-10 05:49:00,70.3,69.7,29.94,West,262,0.0,0.0,98,0.00,,,0.15,0,Wunderground v.1.15,2013-06-10 10:49:00,
2013-06-10 05:54:00,70.3,69.7,29.94,West,262,0.0,0.0,98,0.00,,,0.15,0,Wunderground v.1.15,2013-06-10 10:54:00,
2013-06-10 05:59:00,70.3,69.7,29.94,West,262,0.0,0.0,98,0.00,,,0.15,5,Wunderground v.1.15,2013-06-10 10:59:00,
2013-06-10 06:05:00,70.3,69.7,29.94,West,262,0.0,0.0,98,0.00,,,0.15,7,Wunderground v.1.15,2013-06-10 11:05:00,
2013-06-10 06:10:00,70.3,69.7,29.94,West,262,0.0,0.0,98,0.00,,,0.15,11,Wunderground v.1.15,2013-06-10 11:10:00,
2013-06-10 06:16:00,70.3,69.7,29.94,West,262,0.0,0.0,98,0.00,,,0.15,12,Wunderground v.1.15,2013-06-10 11:16:00,
2013-06-10 06:21:00,70.4,69.8,29.94,West,262,0.0,0.0,98,0.00,,,0.15,16,Wunderground v.1.15,2013-06-10 11:21:00,
2013-06-10 06:26:00,70.4,69.8,29.94,West,262,0.0,0.0,98,0.00,,,0.15,19,Wunderground v.1.15,2013-06-10 11:26:00,
2013-06-10 06:32:00,70.5,69.9,29.95,West,262,0.0,0.0,98,0.00,,,0.15,25,Wunderground v.1.15,2013-06-10 11:32:00,
2013-06-10 06:37:00,70.5,69.9,29.95,West,262,0.0,0.0,98,0.00,,,0.15,30,Wunderground v.1.15,2013-06-10 11:37:00,
2013-06-10 06:42:00,70.6,70.0,29.95,West,262,0.0,0.0,98,0.00,,,0.15,40,Wunderground v.1.15,2013-06-10 11:42:00,
2013-06-10 06:48:00,70.7,70.1,29.95,West,262,0.0,0.0,98,0.00,,,0.15,49,Wunderground v.1.15,2013-06-10 11:48:00,
2013-06-10 06:53:00,70.8,70.2,29.95,West,262,0.0,0.0,98,0.00,,,0.15,62,Wunderground v.1.15,2013-06-10 11:53:00,
2013-06-10 06:58:00,70.9,70.3,29.95,West,262,0.0,0.0,98,0.00,,,0.15,65,Wunderground v.1.15,2013-06-10 11:58:00,
2013-06-10 07:03:00,71.0,70.4,29.95,West,262,0.0,0.0,98,0.00,,,0.15,70,Wunderground v.1.15,2013-06-10 12:03:00,
2013-06-10 07:09:00,71.1,70.5,29.95,West,262,0.0,0.0,98,0.00,,,0.15,135,Wunderground v.1.15,2013-06-10 12:09:00,
2013-06-10 07:14:00,71.2,70.6,29.95,West,262,0.0,0.0,98,0.00,,,0.15,165,Wunderground v.1.15,2013-06-10 12:14:00,
2013-06-10 07:19:00,71.3,70.7,29.95,West,262,0.0,0.0,98,0.00,,,0.15,137,Wunderground v.1.15,2013-06-10 12:19:00,
2013-06-10 07:25:00,71.5,70.9,29.95,West,262,0.0,0.0,98,0.00,,,0.15,218,Wunderground v.1.15,2013-06-10 12:25:00,
2013-06-10 07:31:00,71.7,71.1,29.96,West,262,0.0,0.0,98,0.00,,,0.15,114,Wunderground v.1.15,2013-06-10 12:31:00,
2013-06-10 07:36:00,71.7,71.1,29.96,West,262,0.0,0.0,98,0.00,,,0.15,227,Wunderground v.1.15,2013-06-10 12:36:00,
2013-06-10 07:41:00,71.9,71.3,29.96,West,262,0.0,0.0,98,0.00,,,0.15,135,Wunderground v.1.15,2013-06-10 12:41:00,
2013-06-10 07:46:00,72.1,71.5,29.96,West,262,0.0,0.0,98,0.00,,,0.15,192,Wunderground v.1.15,2013-06-10 12:46:00,
2013-06-10 07:51:00,72.2,71.6,29.96,West,262,0.0,0.0,98,0.00,,,0.15,260,Wunderground v.1.15,2013-06-10 12:51:00,
2013-06-10 07:56:00,72.4,71.8,29.96,West,262,0.0,0.0,98,0.00,,,0.15,236,Wunderground v.1.15,2013-06-10 12:56:00,
2013-06-10 08:02:00,72.6,72.0,29.96,West,262,0.0,0.0,98,0.00,,,0.15,294,Wunderground v.1.15,2013-06-10 13:02:00,
2013-06-10 08:07:00,73.0,72.4,29.96,West,261,0.0,0.0,98,0.00,,,0.15,346,Wunderground v.1.15,2013-06-10 13:07:00,
2013-06-10 08:13:00,73.2,72.6,29.96,West,264,0.0,2.0,98,0.00,,,0.15,366,Wunderground v.1.15,2013-06-10 13:13:00,
2013-06-10 08:18:00,73.5,72.9,29.96,West,265,0.0,2.0,98,0.00,,,0.15,385,Wunderground v.1.15,2013-06-10 13:18:00,
2013-06-10 08:23:00,73.9,73.0,29.96,SW,219,0.0,0.0,97,0.00,,,0.15,401,Wunderground v.1.15,2013-06-10 13:23:00,
2013-06-10 08:28:00,74.3,73.1,29.96,SW,223,0.0,0.0,96,0.00,,,0.15,420,Wunderground v.1.15,2013-06-10 13:28:00,
2013-06-10 08:34:00,74.8,73.6,29.97,WSW,253,0.0,0.0,96,0.00,,,0.15,436,Wunderground v.1.15,2013-06-10 13:34:00,
2013-06-10 08:39:00,75.2,73.7,29.97,WSW,257,0.0,0.0,95,0.00,,,0.15,466,Wunderground v.1.15,2013-06-10 13:39:00,
2013-06-10 08:44:00,75.7,73.8,29.97,WSW,241,0.0,2.0,94,0.00,,,0.15,501,Wunderground v.1.15,2013-06-10 13:44:00,
2013-06-10 08:49:00,76.0,73.8,29.97,West,265,0.0,4.0,93,0.00,,,0.15,541,Wunderground v.1.15,2013-06-10 13:49:00,
2013-06-10 08:54:00,76.3,73.8,29.97,WSW,239,1.0,1.0,92,0.00,,,0.15,543,Wunderground v.1.15,2013-06-10 13:54:00,
2013-06-10 09:00:00,76.8,74.0,29.97,West,274,1.0,1.0,91,0.00,,,0.15,589,Wunderground v.1.15,2013-06-10 14:00:00,
2013-06-10 09:05:00,77.2,74.0,29.97,West,274,0.0,1.0,90,0.00,,,0.15,642,Wunderground v.1.15,2013-06-10 14:05:00,
2013-06-10 09:10:00,77.5,74.0,29.97,West,275,0.0,0.0,89,0.00,,,0.15,666,Wunderground v.1.15,2013-06-10 14:10:00,
2013-06-10 09:21:00,78.1,73.9,29.97,West,277,0.0,0.0,87,0.00,,,0.15,645,Wunderground v.1.15,2013-06-10 14:21:00,
2013-06-10 09:26:00,78.2,74.0,29.97,WNW,290,0.0,3.0,87,0.00,,,0.15,624,Wunderground v.1.15,2013-06-10 14:26:00,
2013-06-10 09:32:00,78.4,74.2,29.97,NNW,328,0.0,0.0,87,0.00,,,0.15,638,Wunderground v.1.15,2013-06-10 14:32:00,
2013-06-10 09:37:00,78.7,74.5,29.97,NW,304,0.0,0.0,87,0.00,,,0.15,666,Wunderground v.1.15,2013-06-10 14:37:00,
2013-06-10 09:49:00,78.9,74.0,29.97,NW,308,0.0,1.0,85,0.00,,,0.15,729,Wunderground v.1.15,2013-06-10 14:49:00,
2013-06-10 09:55:00,79.2,73.9,29.97,West,267,0.0,0.0,84,0.00,,,0.15,722,Wunderground v.1.15,2013-06-10 14:55:00,
2013-06-10 10:01:00,79.4,73.8,29.97,NW,305,1.0,3.0,83,0.00,,,0.15,728,Wunderground v.1.15,2013-06-10 15:01:00,
2013-06-10 10:07:00,79.9,74.3,29.98,WNW,294,0.0,3.0,83,0.00,,,0.15,854,Wunderground v.1.15,2013-06-10 15:07:00,
2013-06-10 10:12:00,80.2,74.9,29.97,West,275,0.0,0.0,84,0.00,,,0.15,816,Wunderground v.1.15,2013-06-10 15:12:00,
2013-06-10 10:17:00,80.5,74.5,29.97,WSW,242,0.0,3.0,82,0.00,,,0.15,838,Wunderground v.1.15,2013-06-10 15:17:00,
2013-06-10 10:23:00,80.9,74.5,29.98,NNW,337,1.0,6.0,81,0.00,,,0.15,854,Wunderground v.1.15,2013-06-10 15:23:00,
2013-06-10 10:28:00,81.2,73.7,29.98,SW,236,1.0,6.0,78,0.00,,,0.15,977,Wunderground v.1.15,2013-06-10 15:28:00,
2013-06-10 10:34:00,81.0,73.9,29.98,WNW,296,1.0,1.0,79,0.00,,,0.15,935,Wunderground v.1.15,2013-06-10 15:34:00,
2013-06-10 10:40:00,81.2,72.9,29.98,NW,325,1.0,1.0,76,0.00,,,0.15,988,Wunderground v.1.15,2013-06-10 15:40:00,
2013-06-10 10:46:00,81.3,73.4,29.98,West,271,1.0,5.0,77,0.00,,,0.15,1009,Wunderground v.1.15,2013-06-10 15:46:00,
2013-06-10 10:51:00,81.4,74.6,29.98,West,270,0.0,1.0,80,0.00,,,0.15,921,Wunderground v.1.15,2013-06-10 15:51:00,
2013-06-10 10:57:00,81.8,74.3,29.98,WSW,244,0.0,1.0,78,0.00,,,0.15,928,Wunderground v.1.15,2013-06-10 15:57:00,
2013-06-10 11:03:00,81.9,74.0,29.98,WNW,291,0.0,0.0,77,0.00,,,0.15,204,Wunderground v.1.15,2013-06-10 16:03:00,
2013-06-10 11:08:00,81.9,75.1,29.98,WSW,251,0.0,0.0,80,0.00,,,0.15,1009,Wunderground v.1.15,2013-06-10 16:08:00,
2013-06-10 11:14:00,82.2,73.5,29.98,SW,236,0.0,0.0,75,0.00,,,0.15,257,Wunderground v.1.15,2013-06-10 16:14:00,
2013-06-10 11:19:00,82.3,75.1,29.98,SW,214,0.0,0.0,79,0.00,,,0.15,320,Wunderground v.1.15,2013-06-10 16:19:00,
2013-06-10 11:26:00,82.7,74.0,29.97,SW,231,0.0,0.0,75,0.00,,,0.15,1016,Wunderground v.1.15,2013-06-10 16:26:00,
2013-06-10 11:32:00,83.0,74.3,29.98,WSW,242,0.0,0.0,75,0.00,,,0.15,260,Wunderground v.1.15,2013-06-10 16:32:00,
2013-06-10 11:38:00,83.1,73.9,29.98,SSW,199,1.0,2.0,74,0.00,,,0.15,984,Wunderground v.1.15,2013-06-10 16:38:00,
2013-06-10 11:43:00,83.4,73.8,29.98,SW,235,1.0,1.0,73,0.00,,,0.00,295,Wunderground v.1.15,2013-06-10 16:43:00,
2013-06-10 11:48:00,83.7,74.1,29.98,SW,225,0.0,1.0,73,0.00,,,0.00,1041,Wunderground v.1.15,2013-06-10 16:48:00,
2013-06-10 11:53:00,84.0,73.2,29.98,WSW,250,0.0,1.0,70,0.00,,,0.00,925,Wunderground v.1.15,2013-06-10 16:53:00,
2013-06-10 11:58:00,84.0,73.2,29.98,SSW,209,0.0,2.0,70,0.00,,,0.00,925,Wunderground v.1.15,2013-06-10 16:58:00,
2013-06-10 12:03:00,84.2,74.2,29.98,West,271,0.0,1.0,72,0.00,,,0.00,1120,Wunderground v.1.15,2013-06-10 17:03:00,
2013-06-10 12:08:00,84.4,74.8,29.97,WSW,237,0.0,1.0,73,0.00,,,0.00,963,Wunderground v.1.15,2013-06-10 17:08:00,
2013-06-10 12:14:00,84.3,73.9,29.98,WSW,239,0.0,1.0,71,0.00,,,0.00,596,Wunderground v.1.15,2013-06-10 17:14:00,
2013-06-10 12:19:00,84.2,73.3,29.97,WSW,255,0.0,1.0,70,0.00,,,0.00,947,Wunderground v.1.15,2013-06-10 17:19:00,
2013-06-10 12:25:00,84.4,74.4,29.97,SW,220,0.0,0.0,72,0.00,,,0.00,947,Wunderground v.1.15,2013-06-10 17:25:00,
2013-06-10 12:30:00,84.3,73.9,29.98,WNW,285,1.0,2.0,71,0.00,,,0.00,893,Wunderground v.1.15,2013-06-10 17:30:00,
2013-06-10 12:35:00,84.3,73.4,29.97,WNW,293,1.0,2.0,70,0.00,,,0.00,981,Wunderground v.1.15,2013-06-10 17:35:00,
2013-06-10 12:40:00,84.5,73.2,29.97,West,279,1.0,1.0,69,0.00,,,0.00,925,Wunderground v.1.15,2013-06-10 17:40:00,
2013-06-10 12:45:00,84.7,73.8,29.97,SW,233,1.0,4.0,70,0.00,,,0.00,896,Wunderground v.1.15,2013-06-10 17:45:00,
2013-06-10 12:51:00,84.8,74.3,29.97,SW,233,1.0,1.0,71,0.00,,,0.00,998,Wunderground v.1.15,2013-06-10 17:51:00,
2013-06-10 12:56:00,85.2,73.4,29.97,NW,311,0.0,1.0,68,0.00,,,0.00,1090,Wunderground v.1.15,2013-06-10 17:56:00,
2013-06-10 13:02:00,85.0,73.7,29.97,SW,224,0.0,0.0,69,0.00,,,0.00,1136,Wunderground v.1.15,2013-06-10 18:02:00,
2013-06-10 13:07:00,84.9,74.0,29.97,WNW,288,1.0,2.0,70,0.00,,,0.00,1125,Wunderground v.1.15,2013-06-10 18:07:00,
2013-06-10 13:13:00,85.1,74.6,29.96,WSW,253,1.0,5.0,71,0.00,,,0.00,1097,Wunderground v.1.15,2013-06-10 18:13:00,
2013-06-10 13:18:00,85.5,73.7,29.97,SW,227,1.0,5.0,68,0.00,,,0.00,1093,Wunderground v.1.15,2013-06-10 18:18:00,
2013-06-10 13:24:00,85.4,74.1,29.96,West,273,0.0,1.0,69,0.00,,,0.00,1097,Wunderground v.1.15,2013-06-10 18:24:00,
2013-06-10 13:30:00,85.7,74.8,29.96,WSW,246,1.0,1.0,70,0.00,,,0.00,997,Wunderground v.1.15,2013-06-10 18:30:00,
2013-06-10 13:36:00,86.5,75.1,29.96,SW,229,1.0,1.0,69,0.00,,,0.00,274,Wunderground v.1.15,2013-06-10 18:36:00,
2013-06-10 13:42:00,86.5,74.2,29.96,West,264,0.0,9.0,67,0.00,,,0.00,1011,Wunderground v.1.15,2013-06-10 18:42:00,
2013-06-10 13:49:00,86.3,73.6,29.97,SW,234,1.0,9.0,66,0.00,,,0.00,1014,Wunderground v.1.15,2013-06-10 18:49:00,
2013-06-10 13:58:00,86.7,74.9,29.96,WSW,237,1.0,7.0,68,0.00,,,0.00,1027,Wunderground v.1.15,2013-06-10 18:58:00,
2013-06-10 14:04:00,86.5,73.8,29.96,SW,233,3.0,4.0,66,0.00,,,0.00,1044,Wunderground v.1.15,2013-06-10 19:04:00,
2013-06-10 14:10:00,86.6,73.4,29.96,WNW,286,1.0,1.0,65,0.00,,,0.00,979,Wunderground v.1.15,2013-06-10 19:10:00,
2013-06-10 14:16:00,87.0,73.8,29.96,SW,228,0.0,1.0,65,0.00,,,0.00,1005,Wunderground v.1.15,2013-06-10 19:16:00,
2013-06-10 14:21:00,87.5,74.7,29.96,SW,229,0.0,0.0,66,0.00,,,0.00,916,Wunderground v.1.15,2013-06-10 19:21:00,
2013-06-10 14:26:00,87.6,73.4,29.95,NW,304,0.0,5.0,63,0.00,,,0.00,962,Wunderground v.1.15,2013-06-10 19:26:00,
2013-06-10 14:31:00,87.2,73.1,29.95,West,260,2.0,2.0,63,0.00,,,0.00,923,Wunderground v.1.15,2013-06-10 19:31:00,
2013-06-10 14:36:00,87.2,73.5,29.95,SW,220,2.0,3.0,64,0.00,,,0.00,981,Wunderground v.1.15,2013-06-10 19:36:00,
2013-06-10 14:42:00,87.8,73.6,29.95,SSW,203,1.0,1.0,63,0.00,,,0.00,977,Wunderground v.1.15,2013-06-10 19:42:00,
2013-06-10 14:47:00,88.2,74.0,29.95,West,269,0.0,1.0,63,0.00,,,0.00,962,Wunderground v.1.15,2013-06-10 19:47:00,
2013-06-10 14:53:00,88.1,72.0,29.95,SW,236,1.0,3.0,59,0.00,,,0.00,949,Wunderground v.1.15,2013-06-10 19:53:00,
2013-06-10 14:58:00,88.0,72.9,29.95,WNW,293,1.0,4.0,61,0.00,,,0.00,912,Wunderground v.1.15,2013-06-10 19:58:00,
2013-06-10 15:03:00,88.0,72.9,29.95,SW,231,0.0,2.0,61,0.00,,,0.00,886,Wunderground v.1.15,2013-06-10 20:03:00,
2013-06-10 15:08:00,88.1,73.4,29.95,SSW,201,0.0,2.0,62,0.00,,,0.00,904,Wunderground v.1.15,2013-06-10 20:08:00,
2013-06-10 15:13:00,88.5,72.8,29.95,SSW,201,0.0,0.0,60,0.00,,,0.00,872,Wunderground v.1.15,2013-06-10 20:13:00,
2013-06-10 15:19:00,88.7,72.0,29.94,NW,316,0.0,1.0,58,0.00,,,0.00,861,Wunderground v.1.15,2013-06-10 20:19:00,
2013-06-10 15:24:00,88.6,71.9,29.95,NW,314,0.0,0.0,58,0.00,,,0.00,844,Wunderground v.1.15,2013-06-10 20:24:00,
2013-06-10 15:29:00,88.6,72.9,29.94,West,275,0.0,5.0,60,0.00,,,0.00,833,Wunderground v.1.15,2013-06-10 20:29:00,
2013-06-10 15:34:00,88.8,72.1,29.95,NW,304,1.0,1.0,58,0.00,,,0.00,846,Wunderground v.1.15,2013-06-10 20:34:00,
2013-06-10 15:39:00,88.9,71.2,29.95,West,281,1.0,4.0,56,0.00,,,0.00,846,Wunderground v.1.15,2013-06-10 20:39:00,
2013-06-10 15:45:00,89.2,72.5,29.95,WSW,246,0.0,3.0,58,0.00,,,0.00,640,Wunderground v.1.15,2013-06-10 20:45:00,
2013-06-10 15:50:00,89.1,72.9,29.95,WSW,237,0.0,0.0,59,0.00,,,0.00,679,Wunderground v.1.15,2013-06-10 20:50:00,
2013-06-10 15:55:00,89.0,75.2,29.95,SW,236,0.0,0.0,64,0.00,,,0.00,812,Wunderground v.1.15,2013-06-10 20:55:00,
2013-06-10 16:00:00,88.7,73.5,29.95,SSE,160,0.0,0.0,61,0.00,,,0.00,816,Wunderground v.1.15,2013-06-10 21:00:00,
2013-06-10 16:06:00,89.0,73.8,29.94,SSE,160,0.0,0.0,61,0.00,,,0.00,773,Wunderground v.1.15,2013-06-10 21:06:00,
2013-06-10 16:11:00,89.7,74.0,29.95,SSW,203,0.0,0.0,60,0.00,,,0.00,773,Wunderground v.1.15,2013-06-10 21:11:00,
2013-06-10 16:16:00,89.8,72.5,29.95,West,259,0.0,6.0,57,0.00,,,0.00,754,Wunderground v.1.15,2013-06-10 21:16:00,
2013-06-10 16:22:00,89.7,73.0,29.95,West,276,1.0,1.0,58,0.00,,,0.00,742,Wunderground v.1.15,2013-06-10 21:22:00,
2013-06-10 16:29:00,89.6,72.9,29.95,SSW,206,1.0,4.0,58,0.00,,,0.00,696,Wunderground v.1.15,2013-06-10 21:29:00,
2013-06-10 16:35:00,89.5,72.8,29.95,SE,142,0.0,1.0,58,0.00,,,0.00,666,Wunderground v.1.15,2013-06-10 21:35:00,
2013-06-10 16:42:00,89.4,74.2,29.95,SE,142,0.0,0.0,61,0.00,,,0.00,640,Wunderground v.1.15,2013-06-10 21:42:00,
2013-06-10 16:47:00,89.5,72.3,29.94,SE,143,0.0,0.0,57,0.00,,,0.00,592,Wunderground v.1.15,2013-06-10 21:47:00,
2013-06-10 16:52:00,89.4,72.2,29.94,SSW,195,0.0,0.0,57,0.00,,,0.00,566,Wunderground v.1.15,2013-06-10 21:52:00,
2013-06-10 16:57:00,89.5,72.3,29.94,WSW,239,0.0,0.0,57,0.00,,,0.00,599,Wunderground v.1.15,2013-06-10 21:57:00,
2013-06-10 17:03:00,89.4,72.7,29.94,WSW,239,0.0,0.0,58,0.00,,,0.00,534,Wunderground v.1.15,2013-06-10 22:03:00,
2013-06-10 17:08:00,89.5,72.3,29.94,SW,224,0.0,1.0,57,0.00,,,0.00,589,Wunderground v.1.15,2013-06-10 22:08:00,
2013-06-10 17:13:00,89.3,72.1,29.94,SW,231,0.0,0.0,57,0.00,,,0.00,548,Wunderground v.1.15,2013-06-10 22:13:00,
2013-06-10 17:19:00,89.4,72.7,29.93,WSW,252,0.0,0.0,58,0.00,,,0.00,510,Wunderground v.1.15,2013-06-10 22:19:00,
2013-06-10 17:24:00,89.6,72.9,29.93,WSW,253,0.0,0.0,58,0.00,,,0.00,369,Wunderground v.1.15,2013-06-10 22:24:00,
2013-06-10 17:29:00,89.3,73.1,29.93,SW,230,0.0,2.0,59,0.00,,,0.00,468,Wunderground v.1.15,2013-06-10 22:29:00,
2013-06-10 17:34:00,88.9,72.2,29.93,SW,231,1.0,5.0,58,0.00,,,0.00,234,Wunderground v.1.15,2013-06-10 22:34:00,
2013-06-10 17:40:00,88.7,72.5,29.92,SW,231,0.0,0.0,59,0.00,,,0.00,290,Wunderground v.1.15,2013-06-10 22:40:00,
2013-06-10 17:45:00,88.5,73.3,29.93,SW,231,0.0,0.0,61,0.00,,,0.00,209,Wunderground v.1.15,2013-06-10 22:45:00,
2013-06-10 17:59:00,88.2,74.0,29.92,WSW,249,0.0,2.0,63,0.00,,,0.00,359,Wunderground v.1.15,2013-06-10 22:59:00,
2013-06-10 18:41:00,84.4,75.2,29.93,SSW,200,0.0,0.0,74,0.00,,,0.00,257,Wunderground v.1.15,2013-06-10 23:41:00,
2013-06-10 19:11:00,82.5,75.7,29.94,South,183,0.0,0.0,80,0.00,,,0.00,109,Wunderground v.1.15,2013-06-11 00:11:00,
2013-06-10 19:16:00,82.3,75.1,29.94,SSE,160,0.0,0.0,79,0.00,,,0.00,62,Wunderground v.1.15,2013-06-11 00:16:00,
2013-06-10 19:21:00,82.2,75.0,29.94,West,272,0.0,0.0,79,0.00,,,0.00,69,Wunderground v.1.15,2013-06-11 00:21:00,
2013-06-10 19:27:00,82.0,74.8,29.94,SW,221,0.0,0.0,79,0.00,,,0.00,62,Wunderground v.1.15,2013-06-11 00:27:00,
2013-06-10 19:32:00,82.0,74.8,29.94,SSW,203,0.0,0.0,79,0.00,,,0.00,54,Wunderground v.1.15,2013-06-11 00:32:00,
2013-06-10 19:37:00,81.8,74.6,29.94,SSW,204,0.0,2.0,79,0.00,,,0.00,40,Wunderground v.1.15,2013-06-11 00:37:00,
2013-06-10 19:43:00,81.5,74.7,29.94,SSW,203,0.0,0.0,80,0.00,,,0.00,25,Wunderground v.1.15,2013-06-11 00:43:00,
2013-06-10 19:49:00,81.2,74.4,29.94,SSW,203,0.0,0.0,80,0.00,,,0.00,21,Wunderground v.1.15,2013-06-11 00:49:00,
2013-06-10 20:08:00,80.1,74.1,29.95,SSW,203,0.0,0.0,82,0.00,,,0.00,5,Wunderground v.1.15,2013-06-11 01:08:00,
2013-06-10 20:13:00,79.8,74.2,29.95,SSW,203,0.0,0.0,83,0.00,,,0.00,0,Wunderground v.1.15,2013-06-11 01:13:00,
2013-06-10 20:22:00,79.4,74.1,29.95,SSW,204,0.0,0.0,84,0.00,,,0.00,0,Wunderground v.1.15,2013-06-11 01:22:00,
2013-06-10 20:28:00,79.2,74.3,29.95,SSW,204,0.0,0.0,85,0.00,,,0.00,0,Wunderground v.1.15,2013-06-11 01:28:00,
2013-06-10 20:33:00,79.0,74.1,29.95,SSW,205,0.0,0.0,85,0.00,,,0.00,0,Wunderground v.1.15,2013-06-11 01:33:00,
2013-06-10 20:38:00,78.8,74.3,29.95,SSW,205,0.0,0.0,86,0.00,,,0.00,0,Wunderground v.1.15,2013-06-11 01:38:00,
2013-06-10 20:45:00,78.7,74.2,29.95,SSW,205,0.0,0.0,86,0.00,,,0.00,0,Wunderground v.1.15,2013-06-11 01:45:00,
2013-06-10 20:53:00,78.4,74.2,29.95,SSW,205,0.0,0.0,87,0.00,,,0.00,0,Wunderground v.1.15,2013-06-11 01:53:00,
2013-06-10 20:59:00,78.2,74.4,29.95,SSW,205,0.0,0.0,88,0.00,,,0.00,0,Wunderground v.1.15,2013-06-11 01:59:00,
2013-06-10 21:06:00,78.0,74.5,29.95,SSW,205,0.0,0.0,89,0.00,,,0.00,0,Wunderground v.1.15,2013-06-11 02:06:00,
2013-06-10 21:12:00,77.9,74.4,29.96,SSW,205,0.0,0.0,89,0.00,,,0.00,0,Wunderground v.1.15,2013-06-11 02:12:00,
2013-06-10 21:17:00,77.8,74.3,29.96,SSW,205,0.0,0.0,89,0.00,,,0.00,0,Wunderground v.1.15,2013-06-11 02:17:00,
2013-06-10 21:25:00,77.6,74.4,29.96,SSW,205,0.0,0.0,90,0.00,,,0.00,0,Wunderground v.1.15,2013-06-11 02:25:00,
2013-06-10 21:37:00,77.3,74.5,29.96,SSW,205,0.0,0.0,91,0.00,,,0.00,0,Wunderground v.1.15,2013-06-11 02:37:00,
2013-06-10 21:42:00,77.1,74.3,29.96,SSW,205,0.0,0.0,91,0.00,,,0.00,0,Wunderground v.1.15,2013-06-11 02:42:00,
2013-06-10 21:47:00,77.0,74.2,29.97,SSW,205,0.0,0.0,91,0.00,,,0.00,0,Wunderground v.1.15,2013-06-11 02:47:00,
2013-06-10 21:53:00,77.0,74.5,29.97,SSW,205,0.0,0.0,92,0.00,,,0.00,0,Wunderground v.1.15,2013-06-11 02:53:00,
2013-06-10 21:58:00,76.8,74.3,29.96,SSW,205,0.0,0.0,92,0.00,,,0.00,0,Wunderground v.1.15,2013-06-11 02:58:00,
2013-06-10 22:03:00,76.7,74.2,29.97,SSW,205,0.0,0.0,92,0.00,,,0.00,0,Wunderground v.1.15,2013-06-11 03:03:00,
2013-06-10 22:09:00,76.6,74.1,29.97,SSW,205,0.0,0.0,92,0.00,,,0.00,0,Wunderground v.1.15,2013-06-11 03:09:00,
2013-06-10 22:14:00,76.5,74.3,29.97,SSW,205,0.0,0.0,93,0.00,,,0.00,0,Wunderground v.1.15,2013-06-11 03:14:00,
2013-06-10 22:19:00,76.4,74.2,29.97,SSW,205,0.0,0.0,93,0.00,,,0.00,0,Wunderground v.1.15,2013-06-11 03:19:00,
2013-06-10 22:24:00,76.3,74.4,29.97,SSW,205,0.0,0.0,94,0.00,,,0.00,0,Wunderground v.1.15,2013-06-11 03:24:00,
2013-06-10 22:30:00,76.2,74.3,29.97,SSW,205,0.0,0.0,94,0.00,,,0.00,0,Wunderground v.1.15,2013-06-11 03:30:00,
2013-06-10 22:35:00,76.2,74.3,29.98,SSW,205,0.0,0.0,94,0.00,,,0.00,0,Wunderground v.1.15,2013-06-11 03:35:00,
2013-06-10 22:40:00,76.1,74.2,29.98,SSW,205,0.0,0.0,94,0.00,,,0.00,0,Wunderground v.1.15,2013-06-11 03:40:00,
2013-06-10 22:45:00,76.1,74.2,29.98,SSW,205,0.0,0.0,94,0.00,,,0.00,0,Wunderground v.1.15,2013-06-11 03:45:00,
2013-06-10 22:51:00,76.0,74.1,29.97,SSW,205,0.0,0.0,94,0.00,,,0.00,0,Wunderground v.1.15,2013-06-11 03:51:00,
2013-06-10 22:56:00,75.9,74.4,29.98,SSW,205,0.0,0.0,95,0.00,,,0.00,0,Wunderground v.1.15,2013-06-11 03:56:00,
2013-06-10 23:01:00,75.9,74.4,29.98,SSW,205,0.0,0.0,95,0.00,,,0.00,0,Wunderground v.1.15,2013-06-11 04:01:00,
2013-06-10 23:02:00,75.8,74.3,29.98,SSW,205,0.0,0.0,95,0.00,,,0.00,0,Wunderground v.1.15,2013-06-11 04:02:00,
2013-06-10 23:04:00,75.8,74.3,29.98,SSW,205,0.0,0.0,95,0.00,,,0.00,0,Wunderground v.1.15,2013-06-11 04:04:00,
2013-06-10 23:06:00,75.8,74.3,29.97,SSW,205,0.0,0.0,95,0.00,,,0.00,0,Wunderground v.1.15,2013-06-11 04:06:00,
2013-06-10 23:13:00,75.7,74.2,29.98,SSW,205,0.0,0.0,95,0.00,,,0.00,0,Wunderground v.1.15,2013-06-11 04:13:00,
2013-06-10 23:14:00,75.7,74.2,29.98,SSW,205,0.0,0.0,95,0.00,,,0.00,0,Wunderground v.1.15,2013-06-11 04:14:00,
2013-06-10 23:22:00,75.6,74.1,29.98,SSW,205,0.0,0.0,95,0.00,,,0.00,0,Wunderground v.1.15,2013-06-11 04:22:00,
2013-06-10 23:27:00,75.6,74.1,29.98,SSW,205,0.0,0.0,95,0.00,,,0.00,0,Wunderground v.1.15,2013-06-11 04:27:00,
2013-06-10 23:33:00,75.5,74.0,29.98,SSW,205,0.0,0.0,95,0.00,,,0.00,0,Wunderground v.1.15,2013-06-11 04:33:00,
2013-06-10 23:39:00,75.3,73.8,29.98,SSW,205,0.0,0.0,95,0.00,,,0.00,0,Wunderground v.1.15,2013-06-11 04:39:00,
2013-06-10 23:44:00,75.3,74.1,29.99,SSW,205,0.0,0.0,96,0.00,,,0.00,0,Wunderground v.1.15,2013-06-11 04:44:00,
2013-06-10 23:50:00,75.3,74.1,29.98,SSW,205,0.0,0.0,96,0.00,,,0.00,0,Wunderground v.1.15,2013-06-11 04:50:00,
2013-06-10 23:56:00,75.3,74.1,29.98,SSW,205,0.0,0.0,96,0.00,,,0.00,0,Wunderground v.1.15,2013-06-11 04:56:00,